Time;durP1;ratioP1;P1;durP2;ratioP2;P2;SDS_P1;SDS_P2;PMS_P1;PMS_P2;Temp;Humidity;BMP_temperature;BMP_pressure;BME280_temperature;BME280_humidity;BME280_pressure;Samples;Min_cycle;Max_cycle;Signal;HPM_P1;HPM_P2
2021/08/27 00:00:16;;;;;;;9.37;4.10;;;;;;;11.12;95.85;100960.38;678865;29;1229;-78
2021/08/27 00:00:37;;;;;;;9.02;3.97;;;;;;;11.11;95.80;100963.84;677414;29;1602;-78
2021/08/27 00:00:57;;;;;;;8.18;4.10;;;;;;;11.11;95.90;100950.78;680797;29;2064;-78
2021/08/27 00:01:18;;;;;;;7.18;4.05;;;;;;;11.12;96.04;100949.03;677424;29;1238;-78
2021/08/27 00:01:38;;;;;;;8.13;3.97;;;;;;;11.12;95.88;100949.03;673698;29;4341;-78
2021/08/27 00:02:00;;;;;;;7.10;4.00;;;;;;;11.11;96.37;100963.84;675079;29;1484;-78
2021/08/27 00:02:21;;;;;;;8.65;4.10;;;;;;;11.10;96.37;100972.56;675103;29;1215;-78
2021/08/27 00:02:41;;;;;;;9.93;4.10;;;;;;;11.11;96.59;100947.31;674555;29;2274;-78
2021/08/27 00:03:02;;;;;;;7.47;4.07;;;;;;;11.11;97.14;100969.09;672022;29;1816;-78
2021/08/27 00:03:22;;;;;;;7.80;3.90;;;;;;;11.08;96.77;100942.94;675227;29;1448;-78
2021/08/27 00:03:43;;;;;;;9.63;4.18;;;;;;;11.07;96.82;100967.34;676921;29;1835;-78
2021/08/27 00:04:07;;;;;;;9.15;4.07;;;;;;;11.11;96.94;100950.78;675422;29;1678;-78
2021/08/27 00:04:27;;;;;;;9.07;4.20;;;;;;;11.12;96.51;100967.34;675395;29;4573;-78
2021/08/27 00:04:48;;;;;;;9.02;3.88;;;;;;;11.10;96.47;100962.09;679195;29;1482;-78
2021/08/27 00:05:09;;;;;;;11.80;4.33;;;;;;;11.11;96.51;100942.94;680795;28;1402;-78
2021/08/27 00:05:30;;;;;;;7.97;4.25;;;;;;;11.17;96.05;100962.97;679348;29;3450;-78
2021/08/27 00:05:51;;;;;;;7.03;3.70;;;;;;;11.25;95.83;100977.78;680005;29;3570;-77
2021/08/27 00:06:12;;;;;;;6.88;3.65;;;;;;;11.27;95.91;100967.31;674297;29;1339;-78
2021/08/27 00:06:32;;;;;;;6.63;3.85;;;;;;;11.24;96.27;100943.75;674791;29;2197;-78
2021/08/27 00:06:53;;;;;;;7.73;4.20;;;;;;;11.23;96.69;100981.28;678045;29;1225;-78
2021/08/27 00:07:13;;;;;;;10.30;4.15;;;;;;;11.18;96.80;100976.06;677689;29;1284;-77
2021/08/27 00:07:34;;;;;;;9.13;3.90;;;;;;;11.15;97.02;100973.44;681332;29;4343;-78
2021/08/27 00:07:54;;;;;;;8.60;3.92;;;;;;;11.14;96.75;100939.44;677505;28;1280;-80
2021/08/27 00:08:15;;;;;;;9.90;4.27;;;;;;;11.18;96.42;100959.50;679855;29;1358;-80
2021/08/27 00:08:36;;;;;;;9.48;3.92;;;;;;;11.20;96.10;100965.56;677212;29;3928;-81
2021/08/27 00:08:58;;;;;;;7.72;4.30;;;;;;;11.18;96.82;100969.97;680355;29;1773;-81
2021/08/27 00:09:18;;;;;;;8.30;4.18;;;;;;;11.15;97.23;100962.13;680605;29;1731;-79
2021/08/27 00:09:39;;;;;;;9.10;4.00;;;;;;;11.13;97.19;100949.03;680498;29;1661;-78
2021/08/27 00:10:00;;;;;;;11.45;4.43;;;;;;;11.16;96.83;100956.00;679641;29;1157;-78
2021/08/27 00:10:20;;;;;;;11.83;4.13;;;;;;;11.14;97.40;100957.75;679630;29;1423;-78
2021/08/27 00:10:41;;;;;;;9.60;3.90;;;;;;;11.13;97.98;100949.03;676301;29;4293;-78
2021/08/27 00:11:01;;;;;;;10.87;4.03;;;;;;;11.11;97.73;100957.78;677723;29;1477;-78
2021/08/27 00:11:21;;;;;;;10.25;4.03;;;;;;;11.11;97.50;100950.78;680276;29;1725;-78
2021/08/27 00:11:42;;;;;;;8.97;3.80;;;;;;;11.13;97.42;100958.63;674086;29;4043;-78
2021/08/27 00:12:03;;;;;;;10.05;4.00;;;;;;;11.11;97.84;100953.41;673230;29;1616;-78
2021/08/27 00:12:23;;;;;;;8.52;4.00;;;;;;;11.11;96.95;100961.25;673134;29;1432;-78
2021/08/27 00:12:44;;;;;;;7.10;3.70;;;;;;;11.15;96.48;100955.13;675435;29;1294;-79
2021/08/27 00:13:05;;;;;;;7.18;3.47;;;;;;;11.21;96.21;100954.25;677232;29;1695;-78
2021/08/27 00:13:25;;;;;;;7.07;3.37;;;;;;;11.23;96.53;100952.50;678396;28;4356;-77
2021/08/27 00:13:46;;;;;;;7.45;3.67;;;;;;;11.22;96.97;100951.63;678583;29;1482;-78
2021/08/27 00:14:06;;;;;;;6.43;3.40;;;;;;;11.20;96.82;100957.72;679628;29;1434;-79
2021/08/27 00:14:27;;;;;;;7.37;3.50;;;;;;;11.16;97.26;100962.13;673836;29;1895;-78
2021/08/27 00:14:47;;;;;;;10.50;3.80;;;;;;;11.15;97.40;100959.50;676060;29;3482;-78
2021/08/27 00:15:09;;;;;;;11.70;4.10;;;;;;;11.14;97.35;100961.22;682367;28;4207;-78
2021/08/27 00:15:29;;;;;;;9.65;3.85;;;;;;;11.15;97.03;100956.88;679328;29;1431;-78
2021/08/27 00:15:50;;;;;;;7.32;3.80;;;;;;;11.19;96.73;100951.63;682019;29;1463;-78
2021/08/27 00:16:11;;;;;;;9.03;3.40;;;;;;;11.23;96.13;100952.50;682059;29;1131;-78
2021/08/27 00:16:31;;;;;;;7.57;3.05;;;;;;;11.27;96.00;100953.34;674631;29;4583;-80
2021/08/27 00:16:52;;;;;;;5.93;3.30;;;;;;;11.27;96.49;100953.34;675564;29;1150;-78
2021/08/27 00:17:12;;;;;;;6.60;3.50;;;;;;;11.28;96.08;100955.97;677320;29;2871;-78
2021/08/27 00:17:33;;;;;;;9.47;3.40;;;;;;;11.27;96.06;100954.25;683076;28;1370;-78
2021/08/27 00:17:53;;;;;;;9.27;3.47;;;;;;;11.27;95.99;100950.72;682602;28;3313;-77
2021/08/27 00:18:14;;;;;;;5.50;2.97;;;;;;;11.31;95.65;100945.50;680458;28;2911;-78
2021/08/27 00:18:34;;;;;;;6.00;3.27;;;;;;;11.35;95.54;100948.97;678393;29;1723;-78
2021/08/27 00:18:55;;;;;;;6.30;3.40;;;;;;;11.32;95.96;100954.22;680142;29;1908;-77
2021/08/27 00:19:15;;;;;;;9.03;3.60;;;;;;;11.29;96.69;100957.72;674752;29;1340;-77
2021/08/27 00:19:35;;;;;;;7.65;3.60;;;;;;;11.29;96.92;100949.00;674377;29;4302;-78
2021/08/27 00:19:59;;;;;;;8.93;3.40;;;;;;;11.28;97.02;100952.47;677849;29;1802;-78
2021/08/27 00:20:20;;;;;;;7.57;3.42;;;;;;;11.25;96.91;100948.97;676975;29;1559;-78
2021/08/27 00:20:40;;;;;;;6.82;3.63;;;;;;;11.25;97.02;100948.13;679814;29;3379;-77
2021/08/27 00:21:01;;;;;;;8.47;3.67;;;;;;;11.23;96.85;100950.75;682509;28;4073;-78
2021/08/27 00:21:21;;;;;;;7.78;3.65;;;;;;;11.27;96.52;100948.13;673947;29;1352;-79
2021/08/27 00:21:42;;;;;;;7.57;3.30;;;;;;;11.28;95.88;100949.88;677419;29;1506;-78
2021/08/27 00:22:02;;;;;;;7.63;3.37;;;;;;;11.30;95.60;100949.00;679148;29;1312;-79
2021/08/27 00:22:23;;;;;;;7.50;3.40;;;;;;;11.38;95.38;100951.56;679858;29;4360;-77
2021/08/27 00:22:43;;;;;;;6.97;3.30;;;;;;;11.39;95.68;100943.72;676190;29;1339;-78
2021/08/27 00:23:05;;;;;;;7.15;3.50;;;;;;;11.37;96.04;100944.59;677409;29;1105;-78
2021/08/27 00:23:25;;;;;;;8.60;3.45;;;;;;;11.34;96.21;100940.25;677376;29;1173;-78
2021/08/27 00:23:46;;;;;;;7.90;3.35;;;;;;;11.31;96.69;100950.75;680030;29;1277;-78
2021/08/27 00:24:07;;;;;;;8.10;3.63;;;;;;;11.28;96.67;100944.63;679412;29;2970;-78
2021/08/27 00:24:29;;;;;;;9.45;3.65;;;;;;;11.26;97.29;100949.88;682156;28;1432;-78
2021/08/27 00:24:50;;;;;;;9.27;3.47;;;;;;;11.22;97.50;100945.53;685514;28;2294;-78
2021/08/27 00:25:11;;;;;;;8.85;3.83;;;;;;;11.21;97.40;100949.00;686168;28;1402;-79
2021/08/27 00:25:33;;;;;;;7.70;3.70;;;;;;;11.21;96.49;100949.88;684765;28;4305;-78
2021/08/27 00:25:53;;;;;;;7.68;3.40;;;;;;;11.23;96.33;100945.50;685443;28;1600;-77
2021/08/27 00:26:14;;;;;;;7.57;3.30;;;;;;;11.26;96.11;100944.63;682740;29;1142;-77
2021/08/27 00:26:34;;;;;;;8.07;3.30;;;;;;;11.29;96.26;100947.25;679702;29;1233;-77
2021/08/27 00:26:55;;;;;;;7.23;3.60;;;;;;;11.33;96.54;100942.88;676847;29;4569;-77
2021/08/27 00:27:15;;;;;;;8.85;3.80;;;;;;;11.35;96.55;100942.00;676909;29;1930;-78
2021/08/27 00:27:36;;;;;;;7.90;3.37;;;;;;;11.36;96.30;100945.47;677170;29;1326;-78
2021/08/27 00:27:56;;;;;;;8.00;3.55;;;;;;;11.32;96.68;100947.22;674544;29;1340;-77
2021/08/27 00:28:17;;;;;;;9.77;3.53;;;;;;;11.32;96.73;100946.38;677378;29;1817;-78
2021/08/27 00:28:37;;;;;;;10.00;3.50;;;;;;;11.27;97.01;100948.13;675932;29;4521;-77
2021/08/27 00:28:58;;;;;;;7.85;3.35;;;;;;;11.24;97.45;100947.25;677347;29;1438;-78
2021/08/27 00:29:18;;;;;;;9.00;3.40;;;;;;;11.24;97.37;100942.03;682261;28;1442;-77
2021/08/27 00:29:39;;;;;;;9.63;3.40;;;;;;;11.24;97.34;100944.66;682541;29;1367;-79
2021/08/27 00:30:01;;;;;;;10.00;3.77;;;;;;;11.24;97.56;100942.03;682793;28;1819;-78
2021/08/27 00:30:23;;;;;;;10.40;3.75;;;;;;;11.22;97.75;100949.00;679325;29;3650;-79
2021/08/27 00:30:43;;;;;;;8.98;3.83;;;;;;;11.20;97.75;100942.03;677277;29;1642;-78
2021/08/27 00:31:04;;;;;;;9.77;3.93;;;;;;;11.18;97.55;100946.41;673874;29;1993;-78
2021/08/27 00:31:24;;;;;;;7.93;3.70;;;;;;;11.16;98.14;100941.19;674207;29;4429;-78
2021/08/27 00:31:45;;;;;;;7.13;3.70;;;;;;;11.13;97.99;100949.03;674869;29;1249;-78
2021/08/27 00:32:06;;;;;;;9.70;3.70;;;;;;;11.13;98.46;100942.91;674641;29;1691;-78
2021/08/27 00:32:27;;;;;;;10.53;3.97;;;;;;;11.16;97.84;100951.66;674723;29;1167;-78
2021/08/27 00:32:47;;;;;;;10.45;4.00;;;;;;;11.16;97.96;100942.91;677385;29;1581;-78
2021/08/27 00:33:08;;;;;;;8.73;4.00;;;;;;;11.16;97.80;100971.69;679714;29;2986;-78
2021/08/27 00:33:28;;;;;;;8.00;4.03;;;;;;;11.12;97.86;100942.06;684317;28;3734;-78
2021/08/27 00:33:50;;;;;;;9.03;3.90;;;;;;;11.12;97.83;100973.47;684647;28;1778;-78
2021/08/27 00:34:10;;;;;;;8.70;3.70;;;;;;;11.16;97.58;100941.19;682165;29;1161;-78
2021/08/27 00:34:31;;;;;;;9.33;3.80;;;;;;;11.14;97.80;100948.16;680990;28;4340;-77
2021/08/27 00:34:52;;;;;;;8.52;3.90;;;;;;;11.15;97.71;100941.19;684233;28;2633;-78
2021/08/27 00:35:13;;;;;;;6.82;3.80;;;;;;;11.15;97.80;100942.06;679183;28;2633;-78
2021/08/27 00:35:33;;;;;;;8.17;3.90;;;;;;;11.15;97.90;100938.56;680089;29;1748;-78
2021/08/27 00:35:54;;;;;;;8.55;4.10;;;;;;;11.14;97.80;100940.31;680169;29;1157;-78
2021/08/27 00:36:14;;;;;;;8.67;4.00;;;;;;;11.14;98.00;100950.75;679500;29;3971;-78
2021/08/27 00:36:34;;;;;;;10.20;3.93;;;;;;;11.15;98.19;100947.28;680179;29;1480;-78
2021/08/27 00:36:55;;;;;;;10.53;4.00;;;;;;;11.16;97.84;100943.78;682720;28;2443;-78
2021/08/27 00:37:15;;;;;;;9.37;3.80;;;;;;;11.17;97.71;100942.94;684874;28;1222;-78
2021/08/27 00:37:36;;;;;;;9.98;4.00;;;;;;;11.17;97.32;100942.94;684592;28;4333;-78
2021/08/27 00:37:56;;;;;;;9.83;4.13;;;;;;;11.18;97.39;100944.66;685098;28;1733;-78
2021/08/27 00:38:17;;;;;;;9.55;3.97;;;;;;;11.18;97.45;100943.78;682505;29;1554;-78
2021/08/27 00:38:37;;;;;;;9.53;3.97;;;;;;;11.16;97.38;100941.19;682531;28;1155;-78
2021/08/27 00:38:59;;;;;;;9.98;4.30;;;;;;;11.17;97.18;100940.31;677612;29;2007;-78
2021/08/27 00:39:19;;;;;;;8.75;4.05;;;;;;;11.15;97.90;100944.66;679348;29;4177;-78
2021/08/27 00:39:39;;;;;;;9.70;4.20;;;;;;;11.17;97.88;100942.94;680345;29;3207;-78
2021/08/27 00:40:00;;;;;;;10.03;4.23;;;;;;;11.18;97.80;100944.66;678893;29;1972;-77
2021/08/27 00:40:21;;;;;;;10.32;4.45;;;;;;;11.16;97.68;100941.19;678855;29;4520;-78
2021/08/27 00:40:43;;;;;;;9.25;4.13;;;;;;;11.16;97.43;100946.41;682914;29;1613;-80
2021/08/27 00:41:03;;;;;;;7.35;3.92;;;;;;;11.15;97.37;100954.28;678753;29;1616;-78
2021/08/27 00:41:24;;;;;;;7.47;4.00;;;;;;;11.14;97.68;100942.91;674180;29;1405;-78
2021/08/27 00:41:44;;;;;;;11.40;4.13;;;;;;;11.09;97.88;100955.16;675820;29;2013;-78
2021/08/27 00:42:05;;;;;;;9.60;4.47;;;;;;;11.09;97.92;100955.16;677035;29;1237;-77
2021/08/27 00:42:26;;;;;;;8.90;4.50;;;;;;;11.06;98.02;100940.34;675914;29;4311;-78
2021/08/27 00:42:46;;;;;;;9.20;4.07;;;;;;;11.06;97.97;100945.56;679536;29;1662;-78
2021/08/27 00:43:08;;;;;;;8.55;4.28;;;;;;;11.06;98.02;100955.16;678434;28;2124;-78
2021/08/27 00:43:28;;;;;;;9.10;4.57;;;;;;;11.09;96.94;100942.06;679598;28;4397;-77
2021/08/27 00:43:49;;;;;;;9.38;4.57;;;;;;;11.11;97.23;100950.78;680430;29;1412;-78
2021/08/27 00:44:09;;;;;;;8.83;4.30;;;;;;;11.11;97.30;100942.94;680146;29;2044;-78
2021/08/27 00:44:30;;;;;;;11.52;4.40;;;;;;;11.12;98.04;100949.03;676336;29;1548;-78
2021/08/27 00:44:50;;;;;;;10.83;4.67;;;;;;;11.12;98.02;100946.41;673559;29;1773;-77
2021/08/27 00:45:11;;;;;;;10.25;4.60;;;;;;;11.09;97.85;100944.69;674679;29;1476;-78
2021/08/27 00:45:32;;;;;;;7.72;4.05;;;;;;;11.08;98.11;100980.44;676462;29;3583;-78
2021/08/27 00:45:52;;;;;;;8.03;4.00;;;;;;;11.05;98.01;100937.72;680222;29;1428;-78
2021/08/27 00:46:12;;;;;;;10.30;4.40;;;;;;;11.10;97.97;100954.25;680049;29;2209;-78
2021/08/27 00:46:33;;;;;;;11.67;4.30;;;;;;;11.06;98.33;100950.81;680494;28;5284;-78
2021/08/27 00:46:53;;;;;;;9.68;4.60;;;;;;;11.07;98.16;100941.19;681928;29;2014;-78
2021/08/27 00:47:14;;;;;;;9.83;4.37;;;;;;;11.09;97.65;100949.94;679506;29;1380;-77
2021/08/27 00:47:34;;;;;;;10.23;4.60;;;;;;;11.09;97.37;100947.31;679151;29;1284;-78
2021/08/27 00:47:55;;;;;;;7.25;3.85;;;;;;;11.12;97.43;100944.69;677378;29;1413;-78
2021/08/27 00:48:16;;;;;;;8.00;3.80;;;;;;;11.13;98.15;100943.81;677670;29;1308;-78
2021/08/27 00:48:37;;;;;;;8.85;4.13;;;;;;;11.08;98.29;100946.41;676268;29;2563;-77
2021/08/27 00:48:57;;;;;;;9.05;4.43;;;;;;;11.05;98.26;100945.56;676884;29;1882;-78
2021/08/27 00:49:17;;;;;;;8.00;4.23;;;;;;;11.04;98.48;100949.06;675989;29;1651;-78
2021/08/27 00:49:38;;;;;;;7.82;4.13;;;;;;;11.02;98.53;100949.06;674761;29;5827;-78
2021/08/27 00:49:59;;;;;;;10.65;4.60;;;;;;;11.03;98.38;100949.91;676458;29;1799;-78
2021/08/27 00:50:22;;;;;;;9.37;4.50;;;;;;;11.02;98.32;100950.78;678427;29;943;-80
2021/08/27 00:50:45;;;;;;;9.57;4.22;;;;;;;11.02;98.57;100942.94;676563;29;3064;-78
2021/08/27 00:51:06;;;;;;;9.68;4.55;;;;;;;11.02;98.87;100953.41;674146;29;2296;-79
2021/08/27 00:51:26;;;;;;;11.55;4.60;;;;;;;11.01;98.86;100951.69;675826;29;3078;-78
2021/08/27 00:51:47;;;;;;;8.30;4.40;;;;;;;11.00;98.89;100950.78;677467;29;2215;-78
2021/08/27 00:52:09;;;;;;;8.82;4.30;;;;;;;11.01;98.95;100946.47;679543;29;1252;-78
2021/08/27 00:52:30;;;;;;;8.65;4.30;;;;;;;11.00;98.85;100955.16;676654;29;4650;-78
2021/08/27 00:52:50;;;;;;;9.00;4.40;;;;;;;10.99;99.09;100940.34;676541;29;1724;-78
2021/08/27 00:53:10;;;;;;;10.40;4.50;;;;;;;10.99;98.96;100950.81;681879;28;1835;-78
2021/08/27 00:53:32;;;;;;;9.00;4.53;;;;;;;10.99;99.00;100950.81;680744;29;1123;-78
2021/08/27 00:53:53;;;;;;;9.07;4.60;;;;;;;10.97;99.23;100950.81;676563;29;2131;-78
2021/08/27 00:54:14;;;;;;;11.05;4.88;;;;;;;10.96;99.02;100942.97;675818;29;1228;-78
2021/08/27 00:54:35;;;;;;;10.50;5.07;;;;;;;10.97;99.15;100945.56;676514;29;4460;-78
2021/08/27 00:54:55;;;;;;;10.23;4.70;;;;;;;11.00;98.58;100950.78;675780;29;4242;-78
2021/08/27 00:55:16;;;;;;;8.47;4.53;;;;;;;11.02;98.68;100942.94;677134;29;1534;-78
2021/08/27 00:55:36;;;;;;;8.93;4.40;;;;;;;11.04;98.33;100944.69;679042;29;4328;-78
2021/08/27 00:55:57;;;;;;;8.60;3.92;;;;;;;11.06;98.14;100945.56;677739;29;1446;-78
2021/08/27 00:56:17;;;;;;;7.20;4.03;;;;;;;11.06;98.22;100945.56;677888;29;1325;-78
2021/08/27 00:56:38;;;;;;;10.45;4.50;;;;;;;11.06;98.64;100950.81;677703;29;1538;-78
2021/08/27 00:56:58;;;;;;;13.03;4.87;;;;;;;11.04;98.76;100949.06;675187;29;1266;-79
2021/08/27 00:57:23;;;;;;;11.15;4.80;;;;;;;11.06;98.81;100952.53;676252;29;1573;-78
2021/08/27 00:57:43;;;;;;;10.48;5.13;;;;;;;11.07;98.58;100954.28;676200;29;4241;-78
2021/08/27 00:58:05;;;;;;;8.70;5.00;;;;;;;11.06;98.61;100945.56;680404;28;985;-78
2021/08/27 00:58:25;;;;;;;8.88;4.85;;;;;;;11.06;98.22;100944.69;681529;28;4359;-78
2021/08/27 00:58:46;;;;;;;9.20;4.63;;;;;;;11.06;98.25;100944.69;684024;28;1383;-78
2021/08/27 00:59:06;;;;;;;10.05;4.90;;;;;;;11.07;98.42;100947.28;685046;28;1938;-78
2021/08/27 00:59:27;;;;;;;10.93;5.00;;;;;;;11.08;97.61;100942.94;684120;28;1676;-78
2021/08/27 00:59:47;;;;;;;8.80;4.70;;;;;;;11.09;97.75;100944.69;683164;28;1207;-78
2021/08/27 01:00:09;;;;;;;10.48;5.05;;;;;;;11.10;98.17;100942.94;680319;29;1567;-78
2021/08/27 01:00:29;;;;;;;9.82;4.90;;;;;;;11.09;98.56;100944.69;680286;29;4262;-78
2021/08/27 01:00:50;;;;;;;9.63;4.90;;;;;;;11.08;98.66;100943.81;680288;29;1428;-78
2021/08/27 01:01:10;;;;;;;10.10;5.20;;;;;;;11.10;98.77;100945.56;680803;28;2218;-78
2021/08/27 01:01:31;;;;;;;10.13;5.07;;;;;;;11.10;98.46;100943.78;679456;29;4590;-78
2021/08/27 01:01:53;;;;;;;11.90;4.95;;;;;;;11.11;97.84;100949.91;677709;29;1764;-78
2021/08/27 01:02:14;;;;;;;10.50;4.93;;;;;;;11.11;97.75;100948.16;681704;29;1020;-78
2021/08/27 01:02:34;;;;;;;9.13;5.18;;;;;;;11.13;97.87;100950.78;682643;29;1279;-78
2021/08/27 01:02:55;;;;;;;9.35;4.95;;;;;;;11.14;97.99;100942.06;682756;28;2980;-78
2021/08/27 01:03:19;;;;;;;10.07;4.83;;;;;;;11.16;97.65;100949.03;682420;29;3895;-79
2021/08/27 01:03:39;;;;;;;9.48;5.07;;;;;;;11.17;97.88;100956.00;683833;28;4330;-78
2021/08/27 01:04:00;;;;;;;10.30;5.10;;;;;;;11.18;98.17;100942.03;683199;28;1684;-78
2021/08/27 01:04:20;;;;;;;9.02;4.88;;;;;;;11.18;98.29;100939.41;684895;28;1238;-78
2021/08/27 01:04:47;;;;;;;9.95;5.13;;;;;;;11.19;98.24;100941.16;681851;28;4314;-78
2021/08/27 01:05:08;;;;;;;10.32;4.90;;;;;;;11.20;98.00;100939.41;680035;29;1068;-78
2021/08/27 01:05:32;;;;;;;7.70;4.47;;;;;;;11.19;98.02;100943.78;678177;29;2117;-78
2021/08/27 01:06:04;;;;;;;10.13;4.70;;;;;;;11.18;97.60;100939.41;679317;29;2774;-78
2021/08/27 01:06:29;;;;;;;9.00;5.13;;;;;;;11.18;97.76;100938.56;678226;29;1473;-78
2021/08/27 01:07:02;;;;;;;11.82;5.22;;;;;;;11.16;98.25;100941.19;677139;29;2461;-78
2021/08/27 01:07:30;;;;;;;9.85;4.85;;;;;;;11.15;98.33;100942.06;679502;29;4507;-78
2021/08/27 01:07:59;;;;;;;10.23;4.75;;;;;;;11.13;98.21;100938.59;679738;29;1459;-78
2021/08/27 01:08:42;;;;;;;10.50;4.97;;;;;;;11.14;98.38;100944.66;682027;29;1767;-78
2021/08/27 01:09:06;;;;;;;10.60;4.97;;;;;;;11.13;98.59;100940.31;679842;29;1288;-78
2021/08/27 01:09:48;;;;;;;12.63;4.95;;;;;;;11.12;98.31;100941.16;679990;29;1650;-78
2021/08/27 01:10:20;;;;;;;10.20;4.97;;;;;;;11.12;98.63;100942.06;680636;28;3735;-78
2021/08/27 01:10:45;;;;;;;11.20;4.90;;;;;;;11.09;98.49;100939.47;682257;28;4479;-78
2021/08/27 01:11:43;;;;;;;12.02;4.97;;;;;;;11.09;98.60;100939.47;684811;28;2233;-78
2021/08/27 01:12:43;;;;;;;9.65;4.72;;;;;;;11.14;98.17;100936.81;682682;29;1371;-78
2021/08/27 01:13:17;;;;;;;10.77;5.10;;;;;;;11.13;98.22;100938.59;677026;29;3923;-78
2021/08/27 01:13:47;;;;;;;9.43;4.80;;;;;;;11.14;98.55;100942.91;678744;29;4494;-78
2021/08/27 01:14:14;;;;;;;9.57;5.00;;;;;;;11.15;98.25;100944.66;686058;28;1649;-78
2021/08/27 01:14:52;;;;;;;9.32;5.00;;;;;;;11.17;98.22;100935.09;684775;28;1676;-78
2021/08/27 01:15:18;;;;;;;7.38;4.40;;;;;;;11.18;98.27;100939.41;686673;28;1432;-78
2021/08/27 01:15:50;;;;;;;9.75;4.78;;;;;;;11.17;98.36;100936.81;685184;28;2068;-78
2021/08/27 01:16:19;;;;;;;8.57;4.80;;;;;;;11.18;98.02;100938.56;683890;28;1933;-78
2021/08/27 01:16:56;;;;;;;9.85;4.90;;;;;;;11.22;98.29;100938.53;682266;28;4309;-78
2021/08/27 01:17:21;;;;;;;8.20;4.75;;;;;;;11.23;97.60;100936.81;679933;29;1230;-78
2021/08/27 01:17:49;;;;;;;11.43;4.63;;;;;;;11.21;97.91;100942.00;680603;29;1249;-78
2021/08/27 01:18:44;;;;;;;11.18;4.78;;;;;;;11.21;97.99;100938.53;679919;29;1339;-78
2021/08/27 01:19:22;;;;;;;10.75;5.00;;;;;;;11.22;97.36;100940.28;682208;28;3590;-78
2021/08/27 01:20:07;;;;;;;10.45;5.05;;;;;;;11.23;97.56;100936.81;687509;28;5059;-78
2021/08/27 01:20:39;;;;;;;7.70;3.95;;;;;;;11.27;96.86;100935.03;685101;28;1038;-78
2021/08/27 01:21:31;;;;;;;9.93;4.20;;;;;;;11.29;97.18;100931.53;685452;28;1300;-78
2021/08/27 01:22:31;;;;;;;9.88;4.60;;;;;;;11.27;96.52;100933.31;680320;29;3573;-78
2021/08/27 01:23:14;;;;;;;8.85;4.32;;;;;;;11.31;96.35;100939.38;680480;29;4891;-78
2021/08/27 01:23:43;;;;;;;8.02;4.30;;;;;;;11.31;95.79;100928.91;679527;28;1211;-78
2021/08/27 01:24:06;;;;;;;11.30;4.40;;;;;;;11.32;96.37;100938.50;678760;29;1340;-79
2021/08/27 01:24:29;;;;;;;11.82;4.72;;;;;;;11.31;96.37;100932.41;679399;29;1603;-78
2021/08/27 01:24:51;;;;;;;10.80;4.80;;;;;;;11.32;96.40;100935.91;680055;29;967;-78
2021/08/27 01:25:15;;;;;;;8.73;4.82;;;;;;;11.30;96.67;100933.28;678948;29;4503;-78
2021/08/27 01:25:37;;;;;;;11.02;4.85;;;;;;;11.26;97.17;100926.31;680803;28;4504;-78
2021/08/27 01:25:59;;;;;;;10.93;5.00;;;;;;;11.23;97.26;100935.03;686554;28;1692;-78
2021/08/27 01:26:24;;;;;;;8.73;5.05;;;;;;;11.24;96.57;100931.56;687851;28;1252;-78
2021/08/27 01:26:53;;;;;;;8.80;4.63;;;;;;;11.26;96.51;100942.03;685658;28;1385;-79
2021/08/27 01:27:18;;;;;;;10.07;4.70;;;;;;;11.24;96.58;100931.56;684586;28;1371;-78
2021/08/27 01:27:39;;;;;;;10.07;4.95;;;;;;;11.24;96.71;100931.56;683579;28;1077;-78
2021/08/27 01:28:03;;;;;;;8.45;4.65;;;;;;;11.24;96.53;100934.19;681544;29;4455;-78
2021/08/27 01:28:24;;;;;;;9.02;4.63;;;;;;;11.24;96.61;100928.94;681583;28;4416;-78
2021/08/27 01:28:50;;;;;;;9.77;4.30;;;;;;;11.23;96.09;100936.81;680053;29;1427;-78
2021/08/27 01:29:12;;;;;;;10.02;4.88;;;;;;;11.22;96.16;100935.91;679235;29;1468;-78
2021/08/27 01:29:49;;;;;;;10.10;4.50;;;;;;;11.23;96.29;100928.94;677230;29;1273;-78
2021/08/27 01:30:34;;;;;;;7.38;3.90;;;;;;;11.30;96.33;100929.78;679502;29;2036;-78
2021/08/27 01:31:02;;;;;;;10.25;4.82;;;;;;;11.27;96.98;100924.56;679798;28;1840;-78
2021/08/27 01:31:25;;;;;;;11.93;4.97;;;;;;;11.23;97.21;100929.81;679643;29;4363;-78
2021/08/27 01:31:52;;;;;;;10.73;4.90;;;;;;;11.25;96.17;100935.03;681887;29;1804;-78
2021/08/27 01:32:20;;;;;;;8.05;4.43;;;;;;;11.27;96.26;100933.31;681799;29;1559;-78
2021/08/27 01:32:47;;;;;;;8.48;4.63;;;;;;;11.23;96.82;100929.81;679630;29;1308;-78
2021/08/27 01:33:21;;;;;;;11.18;4.90;;;;;;;11.22;97.00;100930.69;678542;29;1707;-78
2021/08/27 01:34:19;;;;;;;10.07;5.07;;;;;;;11.21;97.04;100934.16;683082;28;1761;-79
2021/08/27 01:34:43;;;;;;;9.00;4.93;;;;;;;11.15;97.23;100933.34;679610;29;5267;-78
2021/08/27 01:35:06;;;;;;;12.18;5.13;;;;;;;11.12;97.60;100938.56;676807;29;1581;-79
2021/08/27 01:35:31;;;;;;;13.05;5.40;;;;;;;11.08;97.86;100937.72;677758;29;1630;-78
2021/08/27 01:36:01;;;;;;;10.75;5.20;;;;;;;11.08;97.67;100935.94;679963;29;1451;-78
2021/08/27 01:36:23;;;;;;;8.55;5.10;;;;;;;11.07;97.87;100938.56;679452;29;1460;-78
2021/08/27 01:36:48;;;;;;;8.90;5.20;;;;;;;11.08;97.49;100937.72;679709;29;1582;-78
2021/08/27 01:37:14;;;;;;;9.43;5.45;;;;;;;11.13;97.33;100929.84;685098;28;1806;-80
2021/08/27 01:37:36;;;;;;;8.75;5.10;;;;;;;11.11;97.71;100940.31;684343;28;4391;-78
2021/08/27 01:38:01;;;;;;;9.82;4.80;;;;;;;11.09;97.32;100939.47;684777;28;3579;-78
2021/08/27 01:38:29;;;;;;;11.30;5.10;;;;;;;11.06;96.88;100931.59;684124;28;1852;-78
2021/08/27 01:38:51;;;;;;;12.85;5.10;;;;;;;11.05;97.11;100935.09;688567;28;1803;-78
2021/08/27 01:39:15;;;;;;;12.13;4.85;;;;;;;11.05;97.26;100935.09;687758;28;1910;-78
2021/08/27 01:39:39;;;;;;;11.35;4.88;;;;;;;11.04;97.38;100935.97;684887;28;3133;-78
2021/08/27 01:40:00;;;;;;;11.23;5.03;;;;;;;11.03;96.60;100934.22;685973;28;1273;-78
2021/08/27 01:40:23;;;;;;;7.35;4.80;;;;;;;11.04;96.82;100936.84;684186;28;4672;-78
2021/08/27 01:40:49;;;;;;;9.15;5.25;;;;;;;11.02;96.64;100940.31;684422;28;2141;-78
2021/08/27 01:41:11;;;;;;;9.02;5.07;;;;;;;11.01;96.49;100936.84;684352;28;1535;-78
2021/08/27 01:41:37;;;;;;;9.10;4.72;;;;;;;11.03;96.55;100931.63;684844;28;1650;-78
2021/08/27 01:42:01;;;;;;;9.48;4.07;;;;;;;11.12;95.67;100930.72;681971;29;1327;-79
2021/08/27 01:42:27;;;;;;;9.55;4.25;;;;;;;11.16;95.67;100929.81;680251;29;1590;-78
2021/08/27 01:42:49;;;;;;;11.45;4.95;;;;;;;11.14;96.03;100931.59;678609;29;1845;-78
2021/08/27 01:43:13;;;;;;;11.43;4.85;;;;;;;11.12;95.86;100934.22;679758;29;1432;-78
2021/08/27 01:43:35;;;;;;;9.82;5.22;;;;;;;11.10;96.29;100930.72;678828;29;4389;-78
2021/08/27 01:43:59;;;;;;;9.15;5.63;;;;;;;11.06;96.52;100928.97;682139;29;3081;-78
2021/08/27 01:44:23;;;;;;;9.57;5.50;;;;;;;11.03;96.65;100934.22;679823;29;1583;-78
2021/08/27 01:44:45;;;;;;;8.55;4.90;;;;;;;11.03;96.34;100929.00;680023;29;1689;-78
2021/08/27 01:45:06;;;;;;;8.52;5.00;;;;;;;11.03;96.48;100929.00;680624;29;1583;-78
2021/08/27 01:45:28;;;;;;;9.18;5.00;;;;;;;11.00;96.52;100935.09;678422;29;2284;-78
2021/08/27 01:45:49;;;;;;;7.47;4.60;;;;;;;11.01;96.28;100929.00;681049;29;1786;-78
2021/08/27 01:46:12;;;;;;;7.35;4.55;;;;;;;11.03;96.06;100932.47;683803;28;2241;-78
2021/08/27 01:46:35;;;;;;;9.05;4.80;;;;;;;11.03;96.33;100929.84;681861;28;4491;-78
2021/08/27 01:46:58;;;;;;;8.65;4.75;;;;;;;11.02;96.54;100917.66;682084;29;3738;-78
2021/08/27 01:47:24;;;;;;;9.70;5.10;;;;;;;11.00;96.77;100932.47;674584;29;1558;-78
2021/08/27 01:47:45;;;;;;;9.93;4.88;;;;;;;10.96;97.15;100919.44;677104;29;1944;-78
2021/08/27 01:48:07;;;;;;;9.75;4.80;;;;;;;10.93;97.11;100920.31;677491;29;1896;-78
2021/08/27 01:48:31;;;;;;;9.40;5.00;;;;;;;10.92;97.27;100926.41;679874;29;1168;-78
2021/08/27 01:48:52;;;;;;;10.68;5.53;;;;;;;10.89;97.52;100927.28;680393;29;1116;-78
2021/08/27 01:49:14;;;;;;;12.02;5.63;;;;;;;10.86;97.74;100924.66;681620;29;1257;-78
2021/08/27 01:49:34;;;;;;;12.48;5.78;;;;;;;10.84;97.50;100930.78;678647;29;4334;-78
2021/08/27 01:49:55;;;;;;;10.90;5.20;;;;;;;10.79;97.67;100920.31;680217;29;3388;-78
2021/08/27 01:50:16;;;;;;;11.23;5.10;;;;;;;10.76;97.60;100930.78;682990;28;1125;-78
2021/08/27 01:50:37;;;;;;;11.53;5.00;;;;;;;10.78;97.52;100930.78;684256;28;1474;-78
2021/08/27 01:50:58;;;;;;;10.63;5.40;;;;;;;10.75;97.57;100929.03;682239;28;1818;-78